createdAt,value
2018-12-11T00:02:09.542Z,55.40
2018-12-11T00:04:37.176Z,55.40
2018-12-11T00:07:05.668Z,55.40
2018-12-11T00:09:33.290Z,55.50
2018-12-11T00:12:00.891Z,55.30
2018-12-11T00:14:28.472Z,55.10
2018-12-11T00:16:56.028Z,55.30
2018-12-11T00:19:23.639Z,55.30
2018-12-11T00:21:51.258Z,55.10
2018-12-11T00:24:18.818Z,55.00
2018-12-11T00:26:46.384Z,55.20
2018-12-11T00:29:13.920Z,55.10
2018-12-11T00:31:41.469Z,54.80
2018-12-11T00:34:09.134Z,55.20
2018-12-11T00:36:36.676Z,55.50
2018-12-11T00:39:05.847Z,55.30
2018-12-11T00:41:33.431Z,55.10
2018-12-11T00:44:01.125Z,55.20
2018-12-11T00:46:28.714Z,55.20
2018-12-11T00:48:56.247Z,55.00
2018-12-11T00:51:23.795Z,54.90
2018-12-11T00:53:51.347Z,54.70
2018-12-11T00:56:18.906Z,54.70
2018-12-11T00:58:46.470Z,54.70
2018-12-11T01:01:14.075Z,54.70
2018-12-11T01:03:41.583Z,54.80
2018-12-11T01:06:09.155Z,54.70
2018-12-11T01:08:37.742Z,54.50
2018-12-11T01:11:06.309Z,54.80
2018-12-11T01:13:33.885Z,54.60
2018-12-11T01:16:01.478Z,54.70
2018-12-11T01:18:29.029Z,54.80
2018-12-11T01:20:56.590Z,54.80
2018-12-11T01:23:24.249Z,54.80
2018-12-11T01:25:51.873Z,55.00
2018-12-11T01:28:19.415Z,55.00
2018-12-11T01:30:46.935Z,54.90
2018-12-11T01:33:14.613Z,54.90
2018-12-11T01:35:42.280Z,55.20
2018-12-11T01:38:09.801Z,54.80
2018-12-11T01:40:37.398Z,54.80
2018-12-11T01:43:04.989Z,55.40
2018-12-11T01:45:33.133Z,54.70
2018-12-11T01:48:00.845Z,55.00
2018-12-11T01:50:28.487Z,55.00
2018-12-11T01:52:56.150Z,54.90
2018-12-11T01:55:23.715Z,55.00
2018-12-11T01:57:51.506Z,55.20
2018-12-11T02:00:19.155Z,55.10
2018-12-11T02:02:46.716Z,55.10
2018-12-11T02:05:14.365Z,55.20
2018-12-11T02:07:41.879Z,55.20
2018-12-11T02:10:09.534Z,55.20
2018-12-11T02:12:37.084Z,55.00
2018-12-11T02:15:06.288Z,55.00
2018-12-11T02:17:33.853Z,55.00
2018-12-11T02:20:01.402Z,55.20
2018-12-11T02:22:28.907Z,55.00
2018-12-11T02:24:56.464Z,55.20
2018-12-11T02:27:24.005Z,55.20
2018-12-11T02:29:51.571Z,55.30
2018-12-11T02:32:19.109Z,55.10
2018-12-11T02:34:46.627Z,55.10
2018-12-11T02:37:14.477Z,55.10
2018-12-11T02:39:42.028Z,55.00
2018-12-11T02:42:09.697Z,55.20
2018-12-11T02:44:37.377Z,55.10
2018-12-11T02:47:05.014Z,54.90
2018-12-11T02:49:32.568Z,55.20
2018-12-11T02:52:00.093Z,55.10
2018-12-11T02:54:27.613Z,55.20
2018-12-11T02:56:55.487Z,55.00
2018-12-11T02:59:23.037Z,55.30
2018-12-11T03:01:50.593Z,55.10
2018-12-11T03:04:19.123Z,55.20
2018-12-11T03:06:46.719Z,55.10
2018-12-11T03:09:14.338Z,55.10
2018-12-11T03:11:42.313Z,55.00
2018-12-11T03:14:09.863Z,54.90
2018-12-11T03:16:37.419Z,55.00
2018-12-11T03:19:05.923Z,55.10
2018-12-11T03:21:33.485Z,55.30
2018-12-11T03:24:01.034Z,55.10
2018-12-11T03:26:28.578Z,55.00
2018-12-11T03:28:56.306Z,55.30
2018-12-11T03:31:24.156Z,55.10
2018-12-11T03:33:51.821Z,54.80
2018-12-11T03:36:19.341Z,55.10
2018-12-11T03:38:46.987Z,55.20
2018-12-11T03:41:14.507Z,55.00
2018-12-11T03:43:42.110Z,55.10
2018-12-11T03:46:09.762Z,55.10
2018-12-11T03:48:37.469Z,55.10
2018-12-11T03:51:04.989Z,55.20
2018-12-11T03:53:32.946Z,55.30
2018-12-11T03:56:00.496Z,55.30
2018-12-11T03:58:28.083Z,55.10
2018-12-11T04:00:55.675Z,55.00
2018-12-11T04:03:23.212Z,55.30
2018-12-11T04:05:50.746Z,55.10
2018-12-11T04:08:18.350Z,55.30
2018-12-11T04:10:45.882Z,54.80
2018-12-11T04:13:13.432Z,55.30
2018-12-11T04:15:41.251Z,55.40
2018-12-11T04:18:08.783Z,55.80
2018-12-11T04:20:36.519Z,55.30
2018-12-11T04:23:04.045Z,55.60
2018-12-11T04:25:31.575Z,55.60
2018-12-11T04:27:59.194Z,55.70
2018-12-11T04:30:26.727Z,55.60
2018-12-11T04:32:54.269Z,55.60
2018-12-11T04:35:22.166Z,55.60
2018-12-11T04:37:49.712Z,55.40
2018-12-11T04:40:17.336Z,55.30
2018-12-11T04:42:44.874Z,55.30
2018-12-11T04:45:12.425Z,55.40
2018-12-11T04:47:39.979Z,55.60
2018-12-11T04:50:07.626Z,55.60
2018-12-11T04:52:35.154Z,55.80
2018-12-11T04:55:02.781Z,55.90
2018-12-11T04:57:30.345Z,55.50
2018-12-11T04:59:58.014Z,55.80
2018-12-11T05:02:26.604Z,55.90
2018-12-11T05:04:54.189Z,55.70
2018-12-11T05:07:21.725Z,55.70
2018-12-11T05:09:49.286Z,55.60
2018-12-11T05:12:16.899Z,55.40
2018-12-11T05:14:44.430Z,55.60
2018-12-11T05:17:12.093Z,55.80
2018-12-11T05:19:39.678Z,55.40
2018-12-11T05:22:07.218Z,55.20
2018-12-11T05:24:34.814Z,55.40
2018-12-11T05:27:02.355Z,55.50
2018-12-11T05:29:29.913Z,55.10
2018-12-11T05:31:57.482Z,55.30
2018-12-11T05:34:25.191Z,55.10
2018-12-11T05:36:52.703Z,55.10
2018-12-11T05:39:20.272Z,54.70
2018-12-11T05:41:47.769Z,54.90
2018-12-11T05:44:15.402Z,55.00
2018-12-11T05:46:42.967Z,54.90
2018-12-11T05:49:10.499Z,54.70
2018-12-11T05:51:38.038Z,54.80
2018-12-11T05:54:05.863Z,55.10
2018-12-11T05:56:33.457Z,55.10
2018-12-11T05:59:01.098Z,55.20
2018-12-11T06:01:28.733Z,55.20
2018-12-11T06:03:56.314Z,55.50
2018-12-11T06:06:23.934Z,55.30
2018-12-11T06:08:51.487Z,55.50
2018-12-11T06:11:19.083Z,55.10
2018-12-11T06:13:46.618Z,55.20
2018-12-11T06:16:14.574Z,55.10
2018-12-11T06:18:42.124Z,55.30
2018-12-11T06:21:09.752Z,55.20
2018-12-11T06:23:37.333Z,55.30
2018-12-11T06:26:04.872Z,55.20
2018-12-11T06:28:32.700Z,55.20
2018-12-11T06:31:00.250Z,55.20
2018-12-11T06:33:27.801Z,55.10
2018-12-11T06:35:55.393Z,54.90
2018-12-11T06:38:22.934Z,54.90
2018-12-11T06:40:50.457Z,54.80
2018-12-11T06:43:18.004Z,54.90
2018-12-11T06:45:45.665Z,55.10
2018-12-11T06:48:13.226Z,55.40
2018-12-11T06:50:40.793Z,55.00
2018-12-11T06:53:08.314Z,54.90
2018-12-11T06:55:35.898Z,54.90
2018-12-11T06:58:03.483Z,55.30
2018-12-11T07:00:31.020Z,55.30
2018-12-11T07:02:58.605Z,55.10
2018-12-11T07:05:26.177Z,55.10
2018-12-11T07:07:54.621Z,55.20
2018-12-11T07:10:22.150Z,55.40
2018-12-11T07:12:50.793Z,55.50
2018-12-11T07:15:18.313Z,55.50
2018-12-11T07:17:45.874Z,55.50
2018-12-11T07:20:13.525Z,55.40
2018-12-11T07:22:41.125Z,55.40
2018-12-11T07:25:08.654Z,55.70
2018-12-11T07:27:36.215Z,55.60
2018-12-11T07:32:37.710Z,55.40
2018-12-11T07:35:05.265Z,55.40
2018-12-11T07:37:32.794Z,55.50
2018-12-11T07:40:00.430Z,55.50
2018-12-11T07:42:27.955Z,55.30
2018-12-11T07:44:55.490Z,55.40
2018-12-11T07:47:23.107Z,55.20
2018-12-11T07:49:50.710Z,55.40
2018-12-11T07:52:18.272Z,55.40
2018-12-11T07:54:45.835Z,55.60
2018-12-11T07:57:13.415Z,55.40
2018-12-11T07:59:40.947Z,55.50
2018-12-11T08:02:08.476Z,55.40
2018-12-11T08:04:36.027Z,55.10
2018-12-11T08:07:03.653Z,55.20
2018-12-11T08:09:31.158Z,55.40
2018-12-11T08:11:58.773Z,55.60
2018-12-11T08:14:26.363Z,55.40
2018-12-11T08:16:54.032Z,55.60
2018-12-11T08:19:21.689Z,55.50
2018-12-11T08:21:49.238Z,55.50
2018-12-11T08:24:16.785Z,55.70
2018-12-11T08:26:44.346Z,55.40
2018-12-11T08:29:11.875Z,55.70
2018-12-11T08:31:39.430Z,55.70
2018-12-11T08:34:07.074Z,55.70
2018-12-11T08:36:34.838Z,55.60
2018-12-11T08:39:02.395Z,55.70
2018-12-11T08:41:30.896Z,55.70
2018-12-11T08:43:58.434Z,55.80
2018-12-11T08:46:27.111Z,55.90
2018-12-11T08:48:54.663Z,55.90
2018-12-11T08:51:22.332Z,56.10
2018-12-11T08:53:49.874Z,55.90
2018-12-11T08:56:17.673Z,55.90
2018-12-11T08:58:45.322Z,55.80
2018-12-11T09:01:13.048Z,55.80
2018-12-11T09:03:40.732Z,56.10
2018-12-11T09:06:08.307Z,55.90
2018-12-11T09:08:35.929Z,56.00
2018-12-11T09:11:03.494Z,55.90
2018-12-11T09:13:31.178Z,56.00
2018-12-11T09:15:58.696Z,55.80
2018-12-11T09:18:26.276Z,56.10
2018-12-11T09:20:53.833Z,55.70
2018-12-11T09:23:22.373Z,55.80
2018-12-11T09:25:50.021Z,55.50
2018-12-11T09:28:17.614Z,55.80
2018-12-11T09:30:45.329Z,55.70
2018-12-11T09:33:12.876Z,55.90
2018-12-11T09:35:40.410Z,55.90
2018-12-11T09:38:08.147Z,56.00
2018-12-11T09:40:35.669Z,55.80
2018-12-11T09:43:03.455Z,56.20
2018-12-11T09:45:31.001Z,56.30
2018-12-11T09:47:58.541Z,56.00
2018-12-11T09:50:26.090Z,56.20
2018-12-11T09:52:53.631Z,56.10
2018-12-11T09:55:21.238Z,56.10
2018-12-11T09:57:48.773Z,56.40
2018-12-11T10:00:19.254Z,56.00
2018-12-11T10:02:46.369Z,56.20
2018-12-11T10:05:14.023Z,55.80
2018-12-11T10:07:41.593Z,55.80
2018-12-11T10:10:09.382Z,55.90
2018-12-11T10:12:36.996Z,55.80
2018-12-11T10:15:04.800Z,55.90
2018-12-11T10:17:32.362Z,55.80
2018-12-11T10:19:59.951Z,55.70
2018-12-11T10:22:27.509Z,56.10
2018-12-11T10:24:55.074Z,55.80
2018-12-11T10:27:22.686Z,55.90
2018-12-11T10:29:50.223Z,55.90
2018-12-11T10:32:18.299Z,55.90
2018-12-11T10:34:45.991Z,56.10
2018-12-11T10:37:13.579Z,55.80
2018-12-11T10:39:41.156Z,55.90
2018-12-11T10:42:08.726Z,55.90
2018-12-11T10:44:36.339Z,55.60
2018-12-11T10:47:04.017Z,55.60
2018-12-11T10:49:31.741Z,55.70
2018-12-11T10:51:59.336Z,55.60
2018-12-11T10:54:26.905Z,55.80
2018-12-11T10:56:54.451Z,55.60
2018-12-11T10:59:21.998Z,55.80
2018-12-11T11:01:51.572Z,55.50
2018-12-11T11:04:19.214Z,55.40
2018-12-11T11:06:46.794Z,55.60
2018-12-11T11:09:14.366Z,56.20
2018-12-11T11:11:42.078Z,55.50
2018-12-11T11:14:09.816Z,55.70
2018-12-11T11:16:37.633Z,55.70
2018-12-11T11:19:05.237Z,55.70
2018-12-11T11:21:32.880Z,55.90
2018-12-11T11:24:00.426Z,55.70
2018-12-11T11:26:27.995Z,56.10
2018-12-11T11:28:55.602Z,55.50
2018-12-11T11:31:23.291Z,55.70
2018-12-11T11:33:56.644Z,55.10
2018-12-11T11:36:20.608Z,55.20
2018-12-11T11:38:48.158Z,55.20
2018-12-11T11:41:15.791Z,55.00
2018-12-11T11:43:43.384Z,55.70
2018-12-11T11:46:10.946Z,54.80
2018-12-11T11:48:38.521Z,55.10
2018-12-11T11:51:06.101Z,55.20
2018-12-11T11:53:33.634Z,55.10
2018-12-11T11:56:01.318Z,55.20
2018-12-11T11:58:28.899Z,54.90
2018-12-11T12:00:57.011Z,54.80
2018-12-11T12:03:24.566Z,55.20
2018-12-11T12:05:52.105Z,55.10
2018-12-11T12:08:19.632Z,55.00
2018-12-11T12:10:47.205Z,55.00
2018-12-11T12:13:14.733Z,54.90
2018-12-11T12:15:42.260Z,54.80
2018-12-11T12:18:09.871Z,54.70
2018-12-11T12:20:37.416Z,54.90
2018-12-11T12:23:04.928Z,54.90
2018-12-11T12:25:32.530Z,54.90
2018-12-11T12:28:00.062Z,54.60
2018-12-11T12:30:28.732Z,54.70
2018-12-11T12:32:56.365Z,54.80
2018-12-11T12:35:23.895Z,54.90
2018-12-11T12:37:51.514Z,54.70
2018-12-11T12:40:19.251Z,54.70
2018-12-11T12:42:46.795Z,54.30
2018-12-11T12:45:14.327Z,54.70
2018-12-11T12:47:41.897Z,54.10
2018-12-11T12:50:09.508Z,54.30
2018-12-11T12:52:37.062Z,54.20
2018-12-11T12:55:05.230Z,54.10
2018-12-11T12:57:32.825Z,53.90
2018-12-11T13:00:00.378Z,54.30
2018-12-11T13:02:27.954Z,54.20
2018-12-11T13:04:55.644Z,53.90
2018-12-11T13:07:23.158Z,54.00
2018-12-11T13:09:50.678Z,53.90
2018-12-11T13:12:18.231Z,54.30
2018-12-11T13:14:45.899Z,54.00
2018-12-11T13:17:13.466Z,53.70
2018-12-11T13:19:41.339Z,54.10
2018-12-11T13:22:08.888Z,53.70
2018-12-11T13:24:36.415Z,53.70
2018-12-11T13:27:04.038Z,54.10
2018-12-11T13:29:31.716Z,54.20
2018-12-11T13:31:59.266Z,54.30
2018-12-11T13:34:26.824Z,54.20
2018-12-11T13:36:54.376Z,54.00
2018-12-11T13:39:22.007Z,54.10
2018-12-11T13:41:49.563Z,54.00
2018-12-11T13:44:17.288Z,54.10
2018-12-11T13:46:45.214Z,54.40
2018-12-11T13:49:12.725Z,54.50
2018-12-11T13:51:40.295Z,54.40
2018-12-11T13:54:07.956Z,54.50
2018-12-11T13:56:35.500Z,54.60
2018-12-11T13:59:03.057Z,54.40
2018-12-11T14:01:30.597Z,54.60
2018-12-11T14:03:58.148Z,54.50
2018-12-11T14:06:25.703Z,54.40
2018-12-11T14:08:53.222Z,54.40
2018-12-11T14:11:20.761Z,54.30
2018-12-11T14:13:48.520Z,54.30
2018-12-11T14:16:16.088Z,54.20
2018-12-11T14:18:43.647Z,54.30
2018-12-11T14:21:11.218Z,54.50
2018-12-11T14:23:38.761Z,54.50
2018-12-11T14:26:06.546Z,54.60
2018-12-11T14:28:34.118Z,54.50
2018-12-11T14:31:01.703Z,54.40
2018-12-11T14:33:29.255Z,54.30
2018-12-11T14:35:56.782Z,54.60
2018-12-11T14:38:24.374Z,54.50
2018-12-11T14:40:51.987Z,54.60
2018-12-11T14:43:19.554Z,54.40
2018-12-11T14:45:47.276Z,54.30
2018-12-11T14:48:14.935Z,54.50
2018-12-11T14:50:42.570Z,54.30
2018-12-11T14:53:10.167Z,54.30
2018-12-11T14:55:37.948Z,54.30
2018-12-11T14:58:05.487Z,54.40
2018-12-11T15:00:33.337Z,54.50
2018-12-11T15:03:01.198Z,54.40
2018-12-11T15:05:28.807Z,54.60
2018-12-11T15:07:56.672Z,54.50
2018-12-11T15:10:24.508Z,54.60
2018-12-11T15:12:52.171Z,54.50
2018-12-11T15:15:19.692Z,54.30
2018-12-11T15:17:47.214Z,54.50
2018-12-11T15:20:15.056Z,54.50
2018-12-11T15:22:42.587Z,54.60
2018-12-11T15:25:10.127Z,54.40
2018-12-11T15:27:37.702Z,54.20
2018-12-11T15:30:05.535Z,54.40
2018-12-11T15:32:33.064Z,54.10
2018-12-11T15:35:00.628Z,54.20
2018-12-11T15:37:28.178Z,54.40
2018-12-11T15:39:55.733Z,54.20
2018-12-11T15:42:23.331Z,54.10
2018-12-11T15:44:50.851Z,54.40
2018-12-11T15:47:18.389Z,54.30
2018-12-11T15:49:45.952Z,54.20
2018-12-11T15:52:14.428Z,54.30
2018-12-11T15:54:41.983Z,54.10
2018-12-11T15:57:09.559Z,53.90
2018-12-11T15:59:37.227Z,54.20
2018-12-11T16:02:04.849Z,54.30
2018-12-11T16:04:32.376Z,54.50
2018-12-11T16:06:59.946Z,54.30
2018-12-11T16:09:33.200Z,54.60
2018-12-11T16:12:00.775Z,54.50
2018-12-11T16:14:28.339Z,54.50
2018-12-11T16:16:55.897Z,54.60
2018-12-11T16:19:23.497Z,54.40
2018-12-11T16:21:51.022Z,54.30
2018-12-11T16:24:18.602Z,54.60
2018-12-11T16:26:46.191Z,54.60
2018-12-11T16:29:13.791Z,54.60
2018-12-11T16:31:41.499Z,54.80
2018-12-11T16:34:09.090Z,55.00
2018-12-11T16:36:36.625Z,54.40
2018-12-11T16:39:06.269Z,54.50
2018-12-11T16:41:33.811Z,54.60
2018-12-11T16:44:01.373Z,54.60
2018-12-11T16:46:29.274Z,54.80
2018-12-11T16:48:56.950Z,54.70
2018-12-11T16:51:24.613Z,54.60
2018-12-11T16:53:52.184Z,54.40
2018-12-11T16:56:19.778Z,54.40
2018-12-11T16:58:47.482Z,54.40
2018-12-11T17:01:15.018Z,55.00
2018-12-11T17:03:42.576Z,53.90
2018-12-11T17:06:10.228Z,54.50
2018-12-11T17:08:37.738Z,54.50
2018-12-11T17:11:05.315Z,54.70
2018-12-11T17:13:32.838Z,55.40
2018-12-11T17:16:00.409Z,54.40
2018-12-11T17:18:27.937Z,54.40
2018-12-11T17:20:55.610Z,54.50
2018-12-11T17:23:23.157Z,54.60
2018-12-11T17:25:50.668Z,54.90
2018-12-11T17:28:18.215Z,54.60
2018-12-11T17:30:45.789Z,54.60
2018-12-11T17:33:13.330Z,54.70
2018-12-11T17:35:40.891Z,54.60
2018-12-11T17:38:08.421Z,54.60
2018-12-11T17:40:36.013Z,54.60
2018-12-11T17:43:03.738Z,54.40
2018-12-11T17:45:31.292Z,54.40
2018-12-11T17:47:58.849Z,54.50
2018-12-11T17:50:26.381Z,54.40
2018-12-11T17:52:53.961Z,54.30
2018-12-11T17:55:21.472Z,54.40
2018-12-11T17:57:49.064Z,54.30
2018-12-11T18:00:16.697Z,54.40
2018-12-11T18:02:44.365Z,54.50
2018-12-11T18:05:12.022Z,54.30
2018-12-11T18:07:39.662Z,54.30
2018-12-11T18:10:07.326Z,54.00
2018-12-11T18:12:34.857Z,54.30
2018-12-11T18:15:02.481Z,54.10
2018-12-11T18:17:30.010Z,54.10
2018-12-11T18:19:57.739Z,53.60
2018-12-11T18:22:25.263Z,53.70
2018-12-11T18:24:52.814Z,53.50
2018-12-11T18:27:20.379Z,53.20
2018-12-11T18:29:47.914Z,53.30
2018-12-11T18:32:15.780Z,53.50
2018-12-11T18:34:44.006Z,53.40
2018-12-11T18:37:11.952Z,53.30
2018-12-11T18:39:39.530Z,53.50
2018-12-11T18:42:07.127Z,53.60
2018-12-11T18:44:34.793Z,53.40
2018-12-11T18:47:02.687Z,53.40
2018-12-11T18:49:30.327Z,53.30
2018-12-11T18:51:57.870Z,53.60
2018-12-11T18:54:25.398Z,53.50
2018-12-11T18:56:52.967Z,53.70
2018-12-11T18:59:20.489Z,53.40
2018-12-11T19:01:48.085Z,53.40
2018-12-11T19:04:15.622Z,53.20
2018-12-11T19:06:43.177Z,53.10
2018-12-11T19:09:10.710Z,53.20
2018-12-11T19:11:38.301Z,53.20
2018-12-11T19:14:06.076Z,52.80
2018-12-11T19:16:33.617Z,52.90
2018-12-11T19:19:01.317Z,53.00
2018-12-11T19:21:28.859Z,52.90
2018-12-11T19:23:56.552Z,52.20
2018-12-11T19:26:24.416Z,52.80
2018-12-11T19:28:52.115Z,52.60
2018-12-11T19:31:19.682Z,52.60
2018-12-11T19:33:47.200Z,52.70
2018-12-11T19:36:14.774Z,52.40
2018-12-11T19:38:42.333Z,53.20
2018-12-11T19:41:09.908Z,52.40
2018-12-11T19:43:37.469Z,52.70
2018-12-11T19:46:05.042Z,52.20
2018-12-11T19:48:32.581Z,52.60
2018-12-11T19:51:00.158Z,52.70
2018-12-11T19:53:27.821Z,52.80
2018-12-11T19:55:56.278Z,52.70
2018-12-11T19:58:23.811Z,52.60
2018-12-11T20:00:51.420Z,52.20
2018-12-11T20:03:19.106Z,53.00
2018-12-11T20:05:46.681Z,52.50
2018-12-11T20:08:14.272Z,52.70
2018-12-11T20:10:41.818Z,52.50
2018-12-11T20:13:09.470Z,52.40
2018-12-11T20:15:37.133Z,52.50
2018-12-11T20:18:04.667Z,52.10
2018-12-11T20:20:32.478Z,52.30
2018-12-11T20:23:00.233Z,52.60
2018-12-11T20:25:27.916Z,52.70
2018-12-11T20:27:55.466Z,52.70
2018-12-11T20:30:23.235Z,52.50
2018-12-11T20:32:50.905Z,52.70
2018-12-11T20:35:18.677Z,52.70
2018-12-11T20:37:46.386Z,52.70
2018-12-11T20:40:13.959Z,52.40
2018-12-11T20:42:41.493Z,52.50
2018-12-11T20:45:09.335Z,52.10
2018-12-11T20:47:36.938Z,52.30
2018-12-11T20:50:05.295Z,52.20
2018-12-11T20:52:32.978Z,52.40
2018-12-11T20:55:01.269Z,52.40
2018-12-11T20:57:28.878Z,52.10
2018-12-11T20:59:56.468Z,52.30
2018-12-11T21:02:24.057Z,52.10
2018-12-11T21:04:51.650Z,52.20
2018-12-11T21:07:19.234Z,52.20
2018-12-11T21:09:46.849Z,52.40
2018-12-11T21:12:14.414Z,52.30
2018-12-11T21:14:41.988Z,52.30
2018-12-11T21:17:09.621Z,52.40
2018-12-11T21:19:37.168Z,52.30
2018-12-11T21:22:04.768Z,52.20
2018-12-11T21:24:32.471Z,52.30
2018-12-11T21:27:00.009Z,52.10
2018-12-11T21:29:28.826Z,52.00
2018-12-11T21:31:56.652Z,52.10
2018-12-11T21:34:24.283Z,52.10
2018-12-11T21:36:51.826Z,52.00
2018-12-11T21:39:19.396Z,51.80
2018-12-11T21:41:46.968Z,52.00
2018-12-11T21:44:15.670Z,51.80
2018-12-11T21:46:43.251Z,52.10
2018-12-11T21:49:10.930Z,52.10
2018-12-11T21:51:38.643Z,52.20
2018-12-11T21:54:06.250Z,52.30
2018-12-11T21:56:33.806Z,52.50
2018-12-11T21:59:01.356Z,52.50
2018-12-11T22:01:28.927Z,52.20
2018-12-11T22:03:56.489Z,52.20
2018-12-11T22:06:24.309Z,52.30
2018-12-11T22:08:51.876Z,52.30
2018-12-11T22:11:19.430Z,52.10
2018-12-11T22:13:47.013Z,52.30
2018-12-11T22:16:14.573Z,52.10
2018-12-11T22:18:42.101Z,52.20
2018-12-11T22:21:09.657Z,52.40
2018-12-11T22:23:37.202Z,52.60
2018-12-11T22:26:04.743Z,52.30
2018-12-11T22:28:32.406Z,53.10
2018-12-11T22:30:59.979Z,52.30
2018-12-11T22:33:28.313Z,52.40
2018-12-11T22:35:55.947Z,52.40
2018-12-11T22:38:23.478Z,52.30
2018-12-11T22:40:53.064Z,53.00
2018-12-11T22:43:20.681Z,52.50
2018-12-11T22:45:48.201Z,52.90
2018-12-11T22:48:15.779Z,52.90
2018-12-11T22:50:43.420Z,52.70
2018-12-11T22:53:10.977Z,52.60
2018-12-11T22:55:38.554Z,52.60
2018-12-11T22:58:06.242Z,52.70
2018-12-11T23:00:33.870Z,52.60
2018-12-11T23:03:01.433Z,52.40
2018-12-11T23:05:29.062Z,52.60
2018-12-11T23:07:56.591Z,52.40
2018-12-11T23:10:24.279Z,52.70
2018-12-11T23:12:51.815Z,52.70
2018-12-11T23:15:19.469Z,52.60
2018-12-11T23:17:47.136Z,52.40
2018-12-11T23:20:14.659Z,52.40
2018-12-11T23:22:42.210Z,52.50
2018-12-11T23:25:09.862Z,52.60
2018-12-11T23:27:37.418Z,52.90
2018-12-11T23:30:05.526Z,52.70
2018-12-11T23:32:33.569Z,53.00
2018-12-11T23:35:01.134Z,52.80
2018-12-11T23:37:28.690Z,52.90
2018-12-11T23:39:56.347Z,52.90
2018-12-11T23:42:23.910Z,52.60
2018-12-11T23:44:51.470Z,52.80
2018-12-11T23:47:19.029Z,52.80
2018-12-11T23:49:46.622Z,52.90
2018-12-11T23:52:14.247Z,53.00
2018-12-11T23:54:41.831Z,53.20
2018-12-11T23:57:09.450Z,52.90
2018-12-11T23:59:36.986Z,53.10
